createdAt,value
2023-03-05T00:00:56.636Z,58.42
2023-03-05T00:03:30.276Z,58.96
2023-03-05T00:06:00.777Z,59.34
2023-03-05T00:08:31.894Z,59.21
2023-03-05T00:11:03.688Z,59.39
2023-03-05T00:13:35.640Z,59.41
2023-03-05T00:16:07.872Z,59.42
2023-03-05T00:18:38.370Z,59.67
2023-03-05T00:21:19.914Z,59.75
2023-03-05T00:23:50.991Z,60.11
2023-03-05T00:26:22.316Z,60.42
2023-03-05T00:28:52.545Z,61.22
2023-03-05T00:31:24.853Z,61.30
2023-03-05T00:33:56.354Z,61.60
2023-03-05T00:36:28.010Z,61.54
2023-03-05T00:38:58.350Z,61.92
2023-03-05T00:41:29.228Z,61.94
2023-03-05T00:44:00.130Z,62.26
2023-03-05T00:46:30.629Z,62.52
2023-03-05T00:49:03.845Z,62.64
2023-03-05T00:51:34.389Z,62.29
2023-03-05T00:54:05.540Z,62.82
2023-03-05T00:56:37.025Z,62.53
2023-03-05T00:59:07.985Z,62.53
2023-03-05T01:01:38.705Z,62.45
2023-03-05T01:04:09.387Z,62.75
2023-03-05T01:06:42.569Z,62.55
2023-03-05T01:09:12.809Z,62.92
2023-03-05T01:11:43.196Z,63.09
2023-03-05T01:14:13.603Z,62.41
2023-03-05T01:16:43.925Z,62.76
2023-03-05T01:19:14.922Z,62.97
2023-03-05T01:21:45.435Z,62.61
2023-03-05T01:24:15.739Z,62.71
2023-03-05T01:26:46.551Z,62.92
2023-03-05T01:29:16.780Z,62.70
2023-03-05T01:31:47.096Z,62.55
2023-03-05T01:34:17.919Z,62.71
2023-03-05T01:36:49.842Z,62.66
2023-03-05T01:39:20.314Z,62.51
2023-03-05T01:41:50.807Z,62.55
2023-03-05T01:44:25.603Z,62.83
2023-03-05T01:46:55.924Z,63.02
2023-03-05T01:49:27.715Z,62.58
2023-03-05T01:52:02.051Z,62.62
2023-03-05T01:54:35.083Z,62.78
2023-03-05T01:57:10.947Z,62.97
2023-03-05T01:59:43.096Z,62.97
2023-03-05T02:02:14.948Z,62.77
2023-03-05T02:04:49.442Z,62.94
2023-03-05T02:07:20.488Z,63.11
2023-03-05T02:09:50.882Z,63.34
2023-03-05T02:12:21.201Z,63.45
2023-03-05T02:14:58.829Z,63.44
2023-03-05T02:17:30.026Z,63.49
2023-03-05T02:20:07.287Z,63.62
2023-03-05T02:22:36.123Z,63.51
2023-03-05T02:25:16.152Z,63.70
2023-03-05T02:27:53.434Z,63.49
2023-03-05T02:30:24.208Z,63.34
2023-03-05T02:32:54.450Z,63.38
2023-03-05T02:35:24.970Z,63.72
2023-03-05T02:37:55.183Z,63.67
2023-03-05T02:40:25.931Z,63.82
2023-03-05T02:42:56.124Z,63.58
2023-03-05T02:45:26.363Z,63.78
2023-03-05T02:47:56.594Z,63.62
2023-03-05T02:50:28.886Z,63.69
2023-03-05T02:52:59.441Z,63.60
2023-03-05T02:55:29.767Z,63.44
2023-03-05T02:58:00.179Z,63.12
2023-03-05T03:00:31.274Z,63.20
2023-03-05T03:03:01.608Z,63.19
2023-03-05T03:05:32.249Z,63.20
2023-03-05T03:08:03.091Z,63.30
2023-03-05T03:10:33.671Z,63.46
2023-03-05T03:13:04.597Z,63.75
2023-03-05T03:15:34.844Z,63.88
2023-03-05T03:18:05.776Z,63.88
2023-03-05T03:20:39.315Z,63.86
2023-03-05T03:23:09.619Z,63.80
2023-03-05T03:25:39.910Z,63.88
2023-03-05T03:28:10.058Z,63.70
2023-03-05T03:30:41.175Z,63.58
2023-03-05T03:33:11.741Z,63.47
2023-03-05T03:35:42.137Z,63.15
2023-03-05T03:38:13.561Z,63.26
2023-03-05T03:40:43.869Z,63.24
2023-03-05T03:43:14.256Z,63.07
2023-03-05T03:45:45.207Z,63.19
2023-03-05T03:48:15.594Z,63.57
2023-03-05T03:50:45.856Z,63.33
2023-03-05T03:53:17.295Z,63.21
2023-03-05T03:55:47.895Z,63.52
2023-03-05T03:58:18.723Z,63.40
2023-03-05T04:00:49.681Z,63.46
2023-03-05T04:03:20.279Z,63.54
2023-03-05T04:05:51.062Z,63.59
2023-03-05T04:08:22.082Z,63.59
2023-03-05T04:10:52.573Z,63.83
2023-03-05T04:13:22.844Z,63.65
2023-03-05T04:15:54.294Z,63.81
2023-03-05T04:18:25.517Z,63.87
2023-03-05T04:20:56.532Z,63.90
2023-03-05T04:23:27.151Z,63.84
2023-03-05T04:25:58.450Z,63.92
2023-03-05T04:28:28.762Z,64.32
2023-03-05T04:30:59.241Z,64.14
2023-03-05T04:33:29.995Z,64.24
2023-03-05T04:36:01.374Z,64.57
2023-03-05T04:38:31.646Z,64.76
2023-03-05T04:41:01.918Z,64.51
2023-03-05T04:43:32.370Z,64.53
2023-03-05T04:46:03.085Z,64.61
2023-03-05T04:48:34.434Z,65.11
2023-03-05T04:51:05.279Z,65.12
2023-03-05T04:53:35.777Z,65.03
2023-03-05T04:56:07.343Z,65.07
2023-03-05T04:58:38.030Z,65.01
2023-03-05T05:01:09.302Z,64.87
2023-03-05T05:03:40.190Z,64.90
2023-03-05T05:06:11.018Z,64.60
2023-03-05T05:08:41.362Z,64.78
2023-03-05T05:11:14.934Z,64.82
2023-03-05T05:13:45.190Z,64.98
2023-03-05T05:16:16.087Z,64.79
2023-03-05T05:18:46.654Z,64.96
2023-03-05T05:21:18.305Z,65.01
2023-03-05T05:23:48.703Z,65.32
2023-03-05T05:26:18.898Z,65.03
2023-03-05T05:28:49.225Z,65.09
2023-03-05T05:31:20.230Z,65.13
2023-03-05T05:33:50.734Z,65.03
2023-03-05T05:36:22.505Z,65.11
2023-03-05T05:38:52.849Z,65.32
2023-03-05T05:41:23.566Z,64.76
2023-03-05T05:43:54.320Z,64.87
2023-03-05T05:46:25.826Z,64.95
2023-03-05T05:48:56.409Z,64.68
2023-03-05T05:51:26.816Z,64.47
2023-03-05T05:53:57.060Z,64.60
2023-03-05T05:56:27.451Z,64.16
2023-03-05T05:58:57.659Z,64.18
2023-03-05T06:01:29.769Z,64.18
2023-03-05T06:04:00.583Z,64.07
2023-03-05T06:06:31.507Z,64.46
2023-03-05T06:09:02.192Z,64.24
2023-03-05T06:11:33.809Z,64.17
2023-03-05T06:14:04.081Z,64.13
2023-03-05T06:16:35.090Z,63.69
2023-03-05T06:19:05.530Z,63.73
2023-03-05T06:21:36.017Z,63.97
2023-03-05T06:24:07.864Z,64.28
2023-03-05T06:26:38.365Z,64.78
2023-03-05T06:29:08.988Z,64.84
2023-03-05T06:31:40.693Z,64.52
2023-03-05T06:34:12.297Z,64.18
2023-03-05T06:36:43.416Z,64.10
2023-03-05T06:39:14.064Z,63.55
2023-03-05T06:41:45.235Z,63.54
2023-03-05T06:44:15.736Z,63.15
2023-03-05T06:46:46.081Z,62.53
2023-03-05T06:49:17.537Z,62.33
2023-03-05T06:51:48.142Z,62.14
2023-03-05T06:54:19.134Z,62.27
2023-03-05T06:56:49.335Z,61.51
2023-03-05T06:59:19.592Z,61.49
2023-03-05T07:01:50.358Z,61.32
2023-03-05T07:04:20.625Z,61.24
2023-03-05T07:06:51.121Z,61.17
2023-03-05T07:09:21.494Z,61.73
2023-03-05T07:11:51.832Z,61.67
2023-03-05T07:14:22.153Z,61.70
2023-03-05T07:16:52.420Z,61.44
2023-03-05T07:19:22.734Z,61.48
2023-03-05T07:21:53.124Z,61.45
2023-03-05T07:24:24.507Z,61.09
2023-03-05T07:26:54.956Z,61.01
2023-03-05T07:29:25.378Z,60.97
2023-03-05T07:31:56.234Z,61.12
2023-03-05T07:34:27.358Z,60.66
2023-03-05T07:36:57.980Z,60.59
2023-03-05T07:39:28.811Z,60.55
2023-03-05T07:41:59.374Z,60.50
2023-03-05T07:44:29.631Z,60.44
2023-03-05T07:47:00.685Z,60.19
2023-03-05T07:49:31.438Z,60.11
2023-03-05T07:52:01.806Z,60.00
2023-03-05T07:54:32.141Z,59.93
2023-03-05T07:57:02.416Z,59.96
2023-03-05T07:59:32.692Z,59.69
2023-03-05T08:02:03.055Z,59.57
2023-03-05T08:04:33.389Z,58.96
2023-03-05T08:07:04.143Z,58.39
2023-03-05T08:09:35.088Z,57.92
2023-03-05T08:12:06.528Z,58.00
2023-03-05T08:14:36.990Z,57.75
2023-03-05T08:17:08.851Z,57.69
2023-03-05T08:19:39.215Z,57.99
2023-03-05T08:22:09.528Z,58.14
2023-03-05T08:24:39.965Z,57.74
2023-03-05T08:27:10.710Z,57.58
2023-03-05T08:29:41.370Z,57.34
2023-03-05T08:32:12.294Z,57.36
2023-03-05T08:34:42.680Z,57.12
2023-03-05T08:37:13.264Z,57.52
2023-03-05T08:39:43.749Z,58.05
2023-03-05T08:42:14.392Z,58.09
2023-03-05T08:44:44.772Z,58.04
2023-03-05T08:47:15.149Z,58.00
2023-03-05T08:49:45.345Z,58.26
2023-03-05T08:52:15.793Z,58.71
2023-03-05T08:54:46.174Z,58.81
2023-03-05T08:57:16.471Z,59.08
2023-03-05T08:59:46.889Z,59.70
2023-03-05T09:02:17.541Z,60.04
2023-03-05T09:04:48.030Z,59.86
2023-03-05T09:07:18.359Z,59.92
2023-03-05T09:09:48.790Z,59.61
2023-03-05T09:12:19.231Z,59.93
2023-03-05T09:14:49.635Z,60.38
2023-03-05T09:17:20.034Z,60.53
2023-03-05T09:19:50.444Z,60.42
2023-03-05T09:22:20.775Z,60.33
2023-03-05T09:24:51.395Z,60.64
2023-03-05T09:27:21.780Z,60.62
2023-03-05T09:29:52.870Z,60.21
2023-03-05T09:32:23.240Z,60.43
2023-03-05T09:34:53.620Z,60.23
2023-03-05T09:37:24.018Z,60.12
2023-03-05T09:39:54.346Z,59.80
2023-03-05T09:42:46.801Z,59.79
2023-03-05T09:45:23.424Z,60.18
2023-03-05T09:47:59.108Z,59.84
2023-03-05T09:50:48.178Z,60.30
2023-03-05T09:53:24.361Z,59.78
2023-03-05T09:55:55.865Z,59.78
2023-03-05T09:58:34.723Z,60.30
2023-03-05T10:01:07.242Z,60.50
2023-03-05T10:03:50.618Z,60.68
2023-03-05T10:06:25.423Z,61.21
2023-03-05T10:08:58.802Z,61.46
2023-03-05T10:11:43.713Z,61.14
2023-03-05T10:14:16.589Z,61.54
2023-03-05T10:17:16.371Z,61.90
2023-03-05T10:20:12.906Z,61.92
2023-03-05T10:22:57.361Z,61.51
2023-03-05T10:25:39.251Z,61.51
2023-03-05T10:28:17.575Z,61.48
2023-03-05T10:31:07.542Z,61.42
2023-03-05T10:33:44.314Z,61.18
2023-03-05T10:36:31.908Z,60.55
2023-03-05T10:39:42.583Z,60.45
2023-03-05T10:42:21.624Z,60.66
2023-03-05T10:44:55.586Z,60.49
2023-03-05T10:47:28.274Z,60.48
2023-03-05T10:50:00.506Z,60.66
2023-03-05T10:52:35.983Z,60.34
2023-03-05T10:55:16.439Z,59.55
2023-03-05T10:57:47.563Z,58.94
2023-03-05T11:00:23.291Z,58.99
2023-03-05T11:03:00.070Z,58.90
2023-03-05T11:05:37.793Z,59.14
2023-03-05T11:08:24.564Z,59.03
2023-03-05T11:11:16.760Z,59.13
2023-03-05T11:13:55.365Z,59.12
2023-03-05T11:16:27.538Z,58.84
2023-03-05T11:19:19.242Z,58.75
2023-03-05T11:22:16.018Z,58.68
2023-03-05T11:24:47.380Z,58.54
2023-03-05T11:27:27.328Z,58.46
2023-03-05T11:29:58.113Z,58.27
2023-03-05T11:32:30.206Z,57.99
2023-03-05T11:35:00.414Z,57.21
2023-03-05T11:37:32.738Z,56.45
2023-03-05T11:40:22.197Z,56.00
2023-03-05T11:42:56.632Z,55.91
2023-03-05T11:45:27.716Z,55.68
2023-03-05T11:47:59.659Z,55.73
2023-03-05T11:50:31.635Z,54.83
2023-03-05T11:53:06.689Z,54.92
2023-03-05T11:55:41.557Z,55.20
2023-03-05T11:58:25.561Z,54.49
2023-03-05T12:00:56.185Z,53.58
2023-03-05T12:03:28.134Z,53.51
2023-03-05T12:06:01.300Z,53.38
2023-03-05T12:08:34.682Z,53.12
2023-03-05T12:11:10.284Z,52.71
2023-03-05T12:13:44.174Z,53.22
2023-03-05T12:16:20.882Z,53.34
2023-03-05T12:18:56.704Z,53.53
2023-03-05T12:21:33.779Z,53.26
2023-03-05T12:24:05.380Z,53.12
2023-03-05T12:27:07.321Z,52.56
2023-03-05T12:29:45.937Z,52.61
2023-03-05T12:33:03.137Z,52.37
2023-03-05T12:35:41.271Z,52.53
2023-03-05T12:38:31.869Z,52.57
2023-03-05T12:41:34.828Z,51.86
2023-03-05T12:44:24.010Z,51.45
2023-03-05T12:47:19.905Z,51.94
2023-03-05T12:49:50.198Z,52.35
2023-03-05T12:52:29.149Z,52.70
2023-03-05T12:55:20.766Z,52.95
2023-03-05T12:57:56.799Z,52.35
2023-03-05T13:00:33.513Z,52.21
2023-03-05T13:03:03.234Z,52.37
2023-03-05T13:05:48.006Z,52.39
2023-03-05T13:08:22.854Z,52.05
2023-03-05T13:10:54.695Z,51.93
2023-03-05T13:13:26.177Z,51.96
2023-03-05T13:15:56.759Z,52.14
2023-03-05T13:18:29.205Z,52.54
2023-03-05T13:21:08.590Z,52.79
2023-03-05T13:23:38.869Z,52.93
2023-03-05T13:26:15.647Z,53.23
2023-03-05T13:28:46.669Z,53.08
2023-03-05T13:31:19.282Z,53.46
2023-03-05T13:33:54.952Z,54.01
2023-03-05T13:36:27.422Z,54.04
2023-03-05T13:38:57.760Z,54.09
2023-03-05T13:41:29.397Z,54.46
2023-03-05T13:44:01.575Z,54.84
2023-03-05T13:46:34.106Z,54.45
2023-03-05T13:49:22.454Z,54.28
2023-03-05T13:51:54.411Z,54.08
2023-03-05T13:54:26.077Z,54.23
2023-03-05T13:56:58.515Z,54.76
2023-03-05T13:59:30.971Z,54.43
2023-03-05T14:02:02.195Z,54.23
2023-03-05T14:04:38.417Z,54.41
2023-03-05T14:07:26.708Z,55.08
2023-03-05T14:09:57.190Z,54.75
2023-03-05T14:12:31.411Z,54.87
2023-03-05T14:15:06.589Z,54.76
2023-03-05T14:17:42.532Z,54.54
2023-03-05T14:20:23.517Z,54.49
2023-03-05T14:22:56.614Z,54.48
2023-03-05T14:25:37.625Z,54.52
2023-03-05T14:28:27.848Z,54.40
2023-03-05T14:30:59.002Z,54.87
2023-03-05T14:33:31.287Z,55.44
2023-03-05T14:36:02.666Z,55.61
2023-03-05T14:38:35.036Z,55.91
2023-03-05T14:41:36.206Z,56.20
2023-03-05T14:44:14.010Z,56.67
2023-03-05T14:46:48.809Z,56.87
2023-03-05T14:49:19.285Z,57.16
2023-03-05T14:51:49.851Z,56.97
2023-03-05T14:54:26.054Z,57.33
2023-03-05T14:56:56.536Z,57.79
2023-03-05T14:59:27.154Z,58.38
2023-03-05T15:01:58.073Z,58.70
2023-03-05T15:04:28.715Z,59.10
2023-03-05T15:06:59.619Z,59.57
2023-03-05T15:09:30.150Z,59.99
2023-03-05T15:12:00.652Z,60.03
2023-03-05T15:14:31.133Z,60.34
2023-03-05T15:17:01.770Z,60.51
2023-03-05T15:19:32.022Z,60.61
2023-03-05T15:22:02.507Z,60.83
2023-03-05T15:24:32.814Z,61.09
2023-03-05T15:27:03.722Z,61.21
2023-03-05T15:29:34.166Z,61.15
2023-03-05T15:32:05.228Z,61.21
2023-03-05T15:34:35.964Z,61.06
2023-03-05T15:37:06.882Z,60.47
2023-03-05T15:39:37.226Z,60.12
2023-03-05T15:42:08.419Z,60.01
2023-03-05T15:44:42.228Z,59.95
2023-03-05T15:47:12.816Z,59.88
2023-03-05T15:49:43.431Z,60.07
2023-03-05T15:52:15.480Z,60.18
2023-03-05T15:54:46.339Z,60.52
2023-03-05T15:57:16.711Z,60.60
2023-03-05T15:59:47.008Z,60.45
2023-03-05T16:02:18.561Z,60.51
2023-03-05T16:04:49.269Z,60.31
2023-03-05T16:07:22.858Z,60.40
2023-03-05T16:09:55.062Z,60.32
2023-03-05T16:12:27.159Z,60.80
2023-03-05T16:14:57.667Z,60.67
2023-03-05T16:17:27.917Z,60.56
2023-03-05T16:19:59.248Z,60.80
2023-03-05T16:22:30.755Z,60.79
2023-03-05T16:25:01.299Z,60.94
2023-03-05T16:27:32.176Z,60.85
2023-03-05T16:30:03.087Z,60.73
2023-03-05T16:32:34.302Z,60.85
2023-03-05T16:35:05.860Z,60.95
2023-03-05T16:37:36.305Z,61.12
2023-03-05T16:40:09.258Z,61.27
2023-03-05T16:42:39.780Z,61.47
2023-03-05T16:45:12.962Z,61.67
2023-03-05T16:47:43.620Z,62.07
2023-03-05T16:50:15.266Z,61.69
2023-03-05T16:52:45.930Z,62.06
2023-03-05T16:55:16.918Z,61.91
2023-03-05T16:57:47.958Z,62.17
2023-03-05T17:00:24.549Z,61.97
2023-03-05T17:02:55.863Z,61.98
2023-03-05T17:05:28.017Z,61.96
2023-03-05T17:07:58.314Z,61.88
2023-03-05T17:10:28.612Z,61.76
2023-03-05T17:12:59.162Z,62.18
2023-03-05T17:15:29.438Z,62.13
2023-03-05T17:17:59.736Z,62.06
2023-03-05T17:20:30.116Z,62.36
2023-03-05T17:23:02.007Z,62.41
2023-03-05T17:25:32.327Z,62.83
2023-03-05T17:28:02.841Z,62.82
2023-03-05T17:30:36.255Z,62.99
2023-03-05T17:33:07.423Z,63.11
2023-03-05T17:35:37.983Z,63.47
2023-03-05T17:38:10.608Z,63.22
2023-03-05T17:40:41.057Z,63.32
2023-03-05T17:43:11.640Z,63.26
2023-03-05T17:45:42.270Z,62.84
2023-03-05T17:48:13.126Z,62.78
2023-03-05T17:50:44.724Z,62.79
2023-03-05T17:53:15.145Z,62.81
2023-03-05T17:55:45.541Z,62.63
2023-03-05T17:58:16.079Z,62.73
2023-03-05T18:00:47.057Z,62.59
2023-03-05T18:03:20.242Z,62.75
2023-03-05T18:05:50.713Z,62.88
2023-03-05T18:08:21.072Z,62.88
2023-03-05T18:10:51.627Z,62.90
2023-03-05T18:13:21.957Z,62.65
2023-03-05T18:15:52.812Z,62.74
2023-03-05T18:18:23.800Z,62.59
2023-03-05T18:20:54.548Z,62.71
2023-03-05T18:23:25.256Z,62.81
2023-03-05T18:25:55.961Z,62.92
2023-03-05T18:28:27.451Z,62.87
2023-03-05T18:30:58.099Z,63.04
2023-03-05T18:33:28.529Z,62.91
2023-03-05T18:35:59.232Z,63.10
2023-03-05T18:38:31.230Z,63.45
2023-03-05T18:41:05.230Z,63.77
2023-03-05T18:43:36.432Z,63.97
2023-03-05T18:46:08.486Z,63.82
2023-03-05T18:48:40.313Z,63.91
2023-03-05T18:51:16.723Z,64.19
2023-03-05T18:53:47.773Z,64.17
2023-03-05T18:56:18.356Z,63.76
2023-03-05T18:58:48.652Z,63.87
2023-03-05T19:01:19.702Z,64.04
2023-03-05T19:03:50.553Z,64.17
2023-03-05T19:06:21.509Z,64.39
2023-03-05T19:08:57.186Z,64.64
2023-03-05T19:11:28.016Z,64.38
2023-03-05T19:13:58.619Z,64.10
2023-03-05T19:16:36.481Z,64.09
2023-03-05T19:19:20.298Z,64.10
2023-03-05T19:21:53.398Z,64.23
2023-03-05T19:24:24.941Z,64.62
2023-03-05T19:26:56.565Z,64.33
2023-03-05T19:29:28.417Z,64.09
2023-03-05T19:31:59.063Z,64.02
2023-03-05T19:34:29.782Z,63.88
2023-03-05T19:37:00.499Z,63.91
2023-03-05T19:39:30.980Z,64.24
2023-03-05T19:42:01.362Z,64.03
2023-03-05T19:44:32.009Z,64.00
2023-03-05T19:47:02.797Z,64.22
2023-03-05T19:49:33.245Z,64.20
2023-03-05T19:52:04.063Z,64.37
2023-03-05T19:54:35.538Z,64.28
2023-03-05T19:57:06.589Z,64.48
2023-03-05T19:59:36.958Z,64.29
2023-03-05T20:02:08.258Z,64.46
2023-03-05T20:04:38.546Z,64.17
2023-03-05T20:07:10.158Z,64.38
2023-03-05T20:09:40.732Z,64.28
2023-03-05T20:12:11.273Z,64.45
2023-03-05T20:14:41.377Z,64.20
2023-03-05T20:17:12.094Z,64.38
2023-03-05T20:19:42.534Z,64.32
2023-03-05T20:22:13.338Z,64.47
2023-03-05T20:24:43.588Z,64.36
2023-03-05T20:27:14.031Z,64.37
2023-03-05T20:29:44.333Z,64.18
2023-03-05T20:32:15.395Z,64.37
2023-03-05T20:34:46.651Z,64.64
2023-03-05T20:37:21.968Z,64.54
2023-03-05T20:39:52.825Z,64.62
2023-03-05T20:42:23.644Z,64.58
2023-03-05T20:44:54.075Z,64.58
2023-03-05T20:47:46.000Z,64.33
2023-03-05T20:50:17.205Z,64.19
2023-03-05T20:52:47.510Z,64.22
2023-03-05T20:55:18.516Z,64.10
2023-03-05T20:57:48.892Z,64.36
2023-03-05T21:00:20.829Z,64.25
2023-03-05T21:02:54.300Z,64.33
2023-03-05T21:05:27.362Z,64.33
2023-03-05T21:07:59.227Z,64.51
2023-03-05T21:10:33.129Z,64.48
2023-03-05T21:13:03.379Z,64.63
2023-03-05T21:15:33.661Z,64.79
2023-03-05T21:18:04.095Z,64.95
2023-03-05T21:20:34.989Z,64.64
2023-03-05T21:23:06.042Z,64.76
2023-03-05T21:25:37.720Z,64.73
2023-03-05T21:28:10.039Z,64.63
2023-03-05T21:30:43.365Z,64.47
2023-03-05T21:33:16.526Z,64.33
2023-03-05T21:35:47.708Z,64.15
2023-03-05T21:38:18.644Z,64.33
2023-03-05T21:40:50.290Z,64.22
2023-03-05T21:43:22.546Z,64.13
2023-03-05T21:45:54.585Z,64.21
2023-03-05T21:48:25.968Z,64.16
2023-03-05T21:50:57.162Z,64.29
2023-03-05T21:53:27.544Z,64.24
2023-03-05T21:56:25.045Z,64.21
2023-03-05T21:58:55.643Z,64.41
2023-03-05T22:01:25.885Z,64.39
2023-03-05T22:03:56.216Z,64.40
2023-03-05T22:06:26.920Z,64.49
2023-03-05T22:08:57.298Z,64.70
2023-03-05T22:11:28.139Z,64.68
2023-03-05T22:13:58.525Z,64.77
2023-03-05T22:16:29.616Z,64.77
2023-03-05T22:18:59.873Z,64.79
2023-03-05T22:21:30.950Z,64.82
2023-03-05T22:24:01.147Z,64.73
2023-03-05T22:26:37.478Z,64.82
2023-03-05T22:29:11.307Z,64.88
2023-03-05T22:31:42.004Z,64.93
2023-03-05T22:34:13.867Z,64.78
2023-03-05T22:36:44.080Z,64.93
2023-03-05T22:39:14.341Z,65.03
2023-03-05T22:41:45.706Z,65.33
2023-03-05T22:44:16.370Z,65.44
2023-03-05T22:46:46.682Z,65.64
2023-03-05T22:49:17.751Z,65.55
2023-03-05T22:51:48.728Z,65.45
2023-03-05T22:54:18.920Z,65.50
2023-03-05T22:56:49.498Z,65.49
2023-03-05T22:59:19.960Z,65.44
2023-03-05T23:01:50.384Z,65.45
2023-03-05T23:04:49.012Z,65.55
2023-03-05T23:07:22.081Z,65.70
2023-03-05T23:09:57.250Z,65.72
2023-03-05T23:12:30.545Z,65.77
2023-03-05T23:15:02.369Z,65.83
2023-03-05T23:17:33.003Z,65.84
2023-03-05T23:20:05.379Z,65.99
2023-03-05T23:22:36.094Z,65.90
2023-03-05T23:25:08.827Z,65.79
2023-03-05T23:27:39.345Z,65.83
2023-03-05T23:30:19.172Z,65.54
2023-03-05T23:32:52.379Z,65.52
2023-03-05T23:35:24.630Z,65.63
2023-03-05T23:37:56.121Z,65.31
2023-03-05T23:40:28.446Z,65.34
2023-03-05T23:42:59.265Z,65.54
2023-03-05T23:45:30.659Z,65.72
2023-03-05T23:48:01.366Z,65.71
2023-03-05T23:50:34.069Z,65.96
2023-03-05T23:53:04.945Z,65.95
2023-03-05T23:55:37.044Z,65.84
2023-03-05T23:58:07.642Z,65.75
